sensor_id;sensor_type;location;lat;lon;timestamp;temperature;humidity
41644;DHT22;44236;48.098;11.582;2023-01-29T00:00:37;17.50;43.00
41644;DHT22;44236;48.098;11.582;2023-01-29T00:03:03;17.50;43.00
41644;DHT22;44236;48.098;11.582;2023-01-29T00:05:29;17.50;43.10
41644;DHT22;44236;48.098;11.582;2023-01-29T00:07:56;17.50;43.10
41644;DHT22;44236;48.098;11.582;2023-01-29T00:10:23;17.50;43.20
41644;DHT22;44236;48.098;11.582;2023-01-29T00:12:48;17.40;43.00
41644;DHT22;44236;48.098;11.582;2023-01-29T00:15:16;17.40;43.00
41644;DHT22;44236;48.098;11.582;2023-01-29T00:17:42;17.40;43.20
41644;DHT22;44236;48.098;11.582;2023-01-29T00:20:08;17.40;43.20
41644;DHT22;44236;48.098;11.582;2023-01-29T00:22:34;17.40;43.30
41644;DHT22;44236;48.098;11.582;2023-01-29T00:24:59;17.40;43.20
41644;DHT22;44236;48.098;11.582;2023-01-29T00:27:25;17.40;43.40
41644;DHT22;44236;48.098;11.582;2023-01-29T00:29:50;17.30;43.30
41644;DHT22;44236;48.098;11.582;2023-01-29T00:32:34;17.30;43.30
41644;DHT22;44236;48.098;11.582;2023-01-29T00:35:00;17.30;43.30
41644;DHT22;44236;48.098;11.582;2023-01-29T00:37:26;17.30;43.40
41644;DHT22;44236;48.098;11.582;2023-01-29T00:39:51;17.30;43.30
41644;DHT22;44236;48.098;11.582;2023-01-29T00:42:17;17.30;43.70
41644;DHT22;44236;48.098;11.582;2023-01-29T00:45:01;17.20;43.10
41644;DHT22;44236;48.098;11.582;2023-01-29T00:47:26;17.20;43.10
41644;DHT22;44236;48.098;11.582;2023-01-29T00:49:55;17.20;43.10
41644;DHT22;44236;48.098;11.582;2023-01-29T00:52:22;17.20;43.00
41644;DHT22;44236;48.098;11.582;2023-01-29T00:54:48;17.20;43.20
41644;DHT22;44236;48.098;11.582;2023-01-29T00:57:13;17.20;43.00
41644;DHT22;44236;48.098;11.582;2023-01-29T00:59:39;17.10;43.00
41644;DHT22;44236;48.098;11.582;2023-01-29T01:02:05;17.10;43.00
41644;DHT22;44236;48.098;11.582;2023-01-29T01:04:49;17.10;43.10
41644;DHT22;44236;48.098;11.582;2023-01-29T01:07:14;17.10;43.30
41644;DHT22;44236;48.098;11.582;2023-01-29T01:09:40;17.10;43.00
41644;DHT22;44236;48.098;11.582;2023-01-29T01:12:24;17.00;43.00
41644;DHT22;44236;48.098;11.582;2023-01-29T01:14:50;17.00;43.00
41644;DHT22;44236;48.098;11.582;2023-01-29T01:17:15;17.00;43.00
41644;DHT22;44236;48.098;11.582;2023-01-29T01:19:41;17.00;42.90
41644;DHT22;44236;48.098;11.582;2023-01-29T01:22:06;17.00;43.00
41644;DHT22;44236;48.098;11.582;2023-01-29T01:24:32;17.00;43.00
41644;DHT22;44236;48.098;11.582;2023-01-29T01:26:58;16.90;42.80
41644;DHT22;44236;48.098;11.582;2023-01-29T01:29:23;16.90;42.90
41644;DHT22;44236;48.098;11.582;2023-01-29T01:31:49;16.90;42.90
41644;DHT22;44236;48.098;11.582;2023-01-29T01:34:17;16.90;42.90
41644;DHT22;44236;48.098;11.582;2023-01-29T01:36:42;16.60;42.70
41644;DHT22;44236;48.098;11.582;2023-01-29T01:39:08;16.90;43.00
41644;DHT22;44236;48.098;11.582;2023-01-29T01:41:34;16.90;42.80
41644;DHT22;44236;48.098;11.582;2023-01-29T01:44:01;16.90;43.00
41644;DHT22;44236;48.098;11.582;2023-01-29T01:46:28;16.80;42.90
41644;DHT22;44236;48.098;11.582;2023-01-29T01:49:10;16.80;42.90
41644;DHT22;44236;48.098;11.582;2023-01-29T01:51:43;16.80;42.80
41644;DHT22;44236;48.098;11.582;2023-01-29T01:54:23;16.80;43.00
41644;DHT22;44236;48.098;11.582;2023-01-29T01:56:52;16.80;43.00
41644;DHT22;44236;48.098;11.582;2023-01-29T01:59:21;16.80;42.90
41644;DHT22;44236;48.098;11.582;2023-01-29T02:01:50;16.70;42.70
41644;DHT22;44236;48.098;11.582;2023-01-29T02:04:21;16.70;42.80
41644;DHT22;44236;48.098;11.582;2023-01-29T02:07:10;16.70;42.50
41644;DHT22;44236;48.098;11.582;2023-01-29T02:10:05;16.70;42.70
41644;DHT22;44236;48.098;11.582;2023-01-29T02:12:33;16.70;42.80
41644;DHT22;44236;48.098;11.582;2023-01-29T02:14:59;16.70;42.80
41644;DHT22;44236;48.098;11.582;2023-01-29T02:17:25;16.70;43.00
41644;DHT22;44236;48.098;11.582;2023-01-29T02:25:52;16.60;42.80
41644;DHT22;44236;48.098;11.582;2023-01-29T02:36:51;16.60;42.70
41644;DHT22;44236;48.098;11.582;2023-01-29T02:42:23;16.60;42.90
41644;DHT22;44236;48.098;11.582;2023-01-29T02:44:59;16.50;42.70
41644;DHT22;44236;48.098;11.582;2023-01-29T02:47:58;16.50;42.60
41644;DHT22;44236;48.098;11.582;2023-01-29T02:53:12;16.50;42.70
41644;DHT22;44236;48.098;11.582;2023-01-29T02:55:52;16.50;42.70
41644;DHT22;44236;48.098;11.582;2023-01-29T02:58:32;16.50;42.70
41644;DHT22;44236;48.098;11.582;2023-01-29T03:01:07;16.50;42.60
41644;DHT22;44236;48.098;11.582;2023-01-29T03:03:41;16.50;42.60
41644;DHT22;44236;48.098;11.582;2023-01-29T03:06:24;16.50;42.50
41644;DHT22;44236;48.098;11.582;2023-01-29T03:08:59;16.40;42.50
41644;DHT22;44236;48.098;11.582;2023-01-29T03:11:31;16.40;42.50
41644;DHT22;44236;48.098;11.582;2023-01-29T03:14:02;16.40;42.80
41644;DHT22;44236;48.098;11.582;2023-01-29T03:16:33;16.40;42.70
41644;DHT22;44236;48.098;11.582;2023-01-29T03:21:43;16.40;42.50
41644;DHT22;44236;48.098;11.582;2023-01-29T03:24:43;16.30;42.60
41644;DHT22;44236;48.098;11.582;2023-01-29T03:27:36;16.30;42.70
41644;DHT22;44236;48.098;11.582;2023-01-29T03:30:24;16.30;42.70
41644;DHT22;44236;48.098;11.582;2023-01-29T03:33:11;16.30;42.60
41644;DHT22;44236;48.098;11.582;2023-01-29T03:35:44;16.30;42.70
41644;DHT22;44236;48.098;11.582;2023-01-29T03:38:13;16.30;42.50
41644;DHT22;44236;48.098;11.582;2023-01-29T03:46:54;16.30;42.60
41644;DHT22;44236;48.098;11.582;2023-01-29T03:51:57;16.30;42.60
41644;DHT22;44236;48.098;11.582;2023-01-29T03:54:53;16.30;42.50
41644;DHT22;44236;48.098;11.582;2023-01-29T03:57:33;16.40;42.60
41644;DHT22;44236;48.098;11.582;2023-01-29T04:00:27;16.20;42.60
41644;DHT22;44236;48.098;11.582;2023-01-29T04:03:43;16.20;42.70
41644;DHT22;44236;48.098;11.582;2023-01-29T04:06:18;16.20;42.40
41644;DHT22;44236;48.098;11.582;2023-01-29T04:09:12;16.20;42.50
41644;DHT22;44236;48.098;11.582;2023-01-29T04:11:44;16.20;42.40
41644;DHT22;44236;48.098;11.582;2023-01-29T04:14:12;16.20;42.40
41644;DHT22;44236;48.098;11.582;2023-01-29T04:16:45;16.20;42.40
41644;DHT22;44236;48.098;11.582;2023-01-29T04:19:12;16.20;42.30
41644;DHT22;44236;48.098;11.582;2023-01-29T04:21:38;16.20;42.00
41644;DHT22;44236;48.098;11.582;2023-01-29T04:24:05;16.20;42.30
41644;DHT22;44236;48.098;11.582;2023-01-29T04:30:09;16.20;42.60
41644;DHT22;44236;48.098;11.582;2023-01-29T04:32:46;16.20;42.40
41644;DHT22;44236;48.098;11.582;2023-01-29T04:40:56;16.20;42.40
41644;DHT22;44236;48.098;11.582;2023-01-29T04:46:11;16.20;42.40
41644;DHT22;44236;48.098;11.582;2023-01-29T04:57:45;16.20;42.30
41644;DHT22;44236;48.098;11.582;2023-01-29T05:00:37;16.20;42.50
41644;DHT22;44236;48.098;11.582;2023-01-29T05:03:05;16.20;42.30
41644;DHT22;44236;48.098;11.582;2023-01-29T05:05:34;16.20;42.50
41644;DHT22;44236;48.098;11.582;2023-01-29T05:08:02;16.20;42.40
41644;DHT22;44236;48.098;11.582;2023-01-29T05:10:28;16.20;42.40
41644;DHT22;44236;48.098;11.582;2023-01-29T05:12:59;16.10;42.00
41644;DHT22;44236;48.098;11.582;2023-01-29T05:15:31;16.20;42.40
41644;DHT22;44236;48.098;11.582;2023-01-29T05:17:58;16.20;42.40
41644;DHT22;44236;48.098;11.582;2023-01-29T05:20:30;16.20;42.30
41644;DHT22;44236;48.098;11.582;2023-01-29T05:22:56;16.20;42.30
41644;DHT22;44236;48.098;11.582;2023-01-29T05:25:25;16.10;42.50
41644;DHT22;44236;48.098;11.582;2023-01-29T05:27:51;16.20;42.40
41644;DHT22;44236;48.098;11.582;2023-01-29T05:30:37;16.20;42.60
41644;DHT22;44236;48.098;11.582;2023-01-29T05:33:04;16.20;42.40
41644;DHT22;44236;48.098;11.582;2023-01-29T05:35:35;16.20;42.20
41644;DHT22;44236;48.098;11.582;2023-01-29T05:38:00;16.20;42.40
41644;DHT22;44236;48.098;11.582;2023-01-29T05:40:26;16.20;42.20
41644;DHT22;44236;48.098;11.582;2023-01-29T05:42:52;16.20;42.20
41644;DHT22;44236;48.098;11.582;2023-01-29T05:45:18;16.20;42.10
41644;DHT22;44236;48.098;11.582;2023-01-29T05:47:45;16.30;42.10
41644;DHT22;44236;48.098;11.582;2023-01-29T05:50:12;16.30;41.90
41644;DHT22;44236;48.098;11.582;2023-01-29T05:52:37;16.40;42.00
41644;DHT22;44236;48.098;11.582;2023-01-29T05:55:03;16.40;42.00
41644;DHT22;44236;48.098;11.582;2023-01-29T05:57:29;16.50;42.00
41644;DHT22;44236;48.098;11.582;2023-01-29T05:59:55;16.50;41.90
41644;DHT22;44236;48.098;11.582;2023-01-29T06:02:21;16.50;41.90
41644;DHT22;44236;48.098;11.582;2023-01-29T06:04:46;16.50;41.90
41644;DHT22;44236;48.098;11.582;2023-01-29T06:07:12;16.60;41.90
41644;DHT22;44236;48.098;11.582;2023-01-29T06:09:37;16.60;41.90
41644;DHT22;44236;48.098;11.582;2023-01-29T06:12:03;16.60;41.50
41644;DHT22;44236;48.098;11.582;2023-01-29T06:14:31;16.60;41.80
41644;DHT22;44236;48.098;11.582;2023-01-29T06:16:56;16.70;41.90
41644;DHT22;44236;48.098;11.582;2023-01-29T06:19:22;16.70;41.80
41644;DHT22;44236;48.098;11.582;2023-01-29T06:21:47;16.70;41.90
41644;DHT22;44236;48.098;11.582;2023-01-29T06:24:13;16.70;41.80
41644;DHT22;44236;48.098;11.582;2023-01-29T06:26:39;16.80;41.80
41644;DHT22;44236;48.098;11.582;2023-01-29T06:29:04;16.80;41.90
41644;DHT22;44236;48.098;11.582;2023-01-29T06:31:30;16.80;41.80
41644;DHT22;44236;48.098;11.582;2023-01-29T06:33:56;16.80;41.90
41644;DHT22;44236;48.098;11.582;2023-01-29T06:36:22;16.80;41.80
41644;DHT22;44236;48.098;11.582;2023-01-29T06:38:48;16.90;41.90
41644;DHT22;44236;48.098;11.582;2023-01-29T06:41:16;16.90;41.80
41644;DHT22;44236;48.098;11.582;2023-01-29T06:43:45;16.90;42.00
41644;DHT22;44236;48.098;11.582;2023-01-29T06:46:11;16.90;41.80
41644;DHT22;44236;48.098;11.582;2023-01-29T06:48:37;16.90;41.80
41644;DHT22;44236;48.098;11.582;2023-01-29T06:51:04;16.90;42.20
41644;DHT22;44236;48.098;11.582;2023-01-29T06:53:31;16.90;41.80
41644;DHT22;44236;48.098;11.582;2023-01-29T06:55:57;16.90;41.90
41644;DHT22;44236;48.098;11.582;2023-01-29T06:58:23;17.00;42.00
41644;DHT22;44236;48.098;11.582;2023-01-29T07:00:49;17.00;41.70
41644;DHT22;44236;48.098;11.582;2023-01-29T07:03:14;17.00;41.70
41644;DHT22;44236;48.098;11.582;2023-01-29T07:05:40;17.10;41.80
41644;DHT22;44236;48.098;11.582;2023-01-29T07:08:06;17.10;41.90
41644;DHT22;44236;48.098;11.582;2023-01-29T07:10:31;17.10;41.90
41644;DHT22;44236;48.098;11.582;2023-01-29T07:13:00;17.10;41.60
41644;DHT22;44236;48.098;11.582;2023-01-29T07:15:26;17.10;41.90
41644;DHT22;44236;48.098;11.582;2023-01-29T07:17:59;17.10;41.90
41644;DHT22;44236;48.098;11.582;2023-01-29T07:20:27;17.10;42.40
41644;DHT22;44236;48.098;11.582;2023-01-29T07:22:55;17.10;41.90
41644;DHT22;44236;48.098;11.582;2023-01-29T07:25:20;17.10;41.90
41644;DHT22;44236;48.098;11.582;2023-01-29T07:27:46;17.10;42.10
41644;DHT22;44236;48.098;11.582;2023-01-29T07:30:12;17.10;42.00
41644;DHT22;44236;48.098;11.582;2023-01-29T07:32:38;17.10;41.50
41644;DHT22;44236;48.098;11.582;2023-01-29T07:35:04;17.10;40.90
41644;DHT22;44236;48.098;11.582;2023-01-29T07:37:30;17.20;42.10
41644;DHT22;44236;48.098;11.582;2023-01-29T07:39:55;17.20;40.90
41644;DHT22;44236;48.098;11.582;2023-01-29T07:42:21;17.20;41.00
41644;DHT22;44236;48.098;11.582;2023-01-29T07:44:47;17.20;41.20
41644;DHT22;44236;48.098;11.582;2023-01-29T07:47:13;17.20;41.10
41644;DHT22;44236;48.098;11.582;2023-01-29T07:49:38;17.20;41.20
41644;DHT22;44236;48.098;11.582;2023-01-29T07:52:04;17.30;41.70
41644;DHT22;44236;48.098;11.582;2023-01-29T07:54:30;17.20;41.10
41644;DHT22;44236;48.098;11.582;2023-01-29T07:56:55;17.30;41.30
41644;DHT22;44236;48.098;11.582;2023-01-29T07:59:21;17.30;41.40
41644;DHT22;44236;48.098;11.582;2023-01-29T08:01:47;17.30;41.20
41644;DHT22;44236;48.098;11.582;2023-01-29T08:04:12;17.30;42.10
41644;DHT22;44236;48.098;11.582;2023-01-29T08:06:38;17.30;42.30
41644;DHT22;44236;48.098;11.582;2023-01-29T08:09:03;17.30;42.90
41644;DHT22;44236;48.098;11.582;2023-01-29T08:11:29;17.30;42.50
41644;DHT22;44236;48.098;11.582;2023-01-29T08:13:55;17.40;42.00
41644;DHT22;44236;48.098;11.582;2023-01-29T08:16:21;17.40;42.60
41644;DHT22;44236;48.098;11.582;2023-01-29T08:18:47;17.40;41.90
41644;DHT22;44236;48.098;11.582;2023-01-29T08:21:13;17.40;42.60
41644;DHT22;44236;48.098;11.582;2023-01-29T08:23:39;17.40;42.30
41644;DHT22;44236;48.098;11.582;2023-01-29T08:26:05;17.40;42.80
41644;DHT22;44236;48.098;11.582;2023-01-29T08:28:31;17.00;34.60
41644;DHT22;44236;48.098;11.582;2023-01-29T08:30:57;15.00;36.20
41644;DHT22;44236;48.098;11.582;2023-01-29T08:33:23;15.10;41.10
41644;DHT22;44236;48.098;11.582;2023-01-29T08:35:50;15.60;42.20
41644;DHT22;44236;48.098;11.582;2023-01-29T08:38:16;15.90;41.90
41644;DHT22;44236;48.098;11.582;2023-01-29T08:40:42;16.30;42.40
41644;DHT22;44236;48.098;11.582;2023-01-29T08:43:11;16.50;42.80
41644;DHT22;44236;48.098;11.582;2023-01-29T08:45:41;16.60;42.60
41644;DHT22;44236;48.098;11.582;2023-01-29T08:48:08;16.70;42.60
41644;DHT22;44236;48.098;11.582;2023-01-29T08:50:34;16.80;42.90
41644;DHT22;44236;48.098;11.582;2023-01-29T08:53:03;16.90;43.00
41644;DHT22;44236;48.098;11.582;2023-01-29T08:55:32;16.90;43.00
41644;DHT22;44236;48.098;11.582;2023-01-29T08:57:57;17.00;43.20
41644;DHT22;44236;48.098;11.582;2023-01-29T09:00:23;17.00;43.30
41644;DHT22;44236;48.098;11.582;2023-01-29T09:02:49;17.00;43.90
41644;DHT22;44236;48.098;11.582;2023-01-29T09:05:14;17.10;43.70
41644;DHT22;44236;48.098;11.582;2023-01-29T09:07:40;17.20;43.30
41644;DHT22;44236;48.098;11.582;2023-01-29T09:10:06;17.20;43.70
41644;DHT22;44236;48.098;11.582;2023-01-29T09:12:32;17.20;43.80
41644;DHT22;44236;48.098;11.582;2023-01-29T09:14:58;17.20;43.90
41644;DHT22;44236;48.098;11.582;2023-01-29T09:17:23;17.20;43.90
41644;DHT22;44236;48.098;11.582;2023-01-29T09:19:49;17.30;44.00
41644;DHT22;44236;48.098;11.582;2023-01-29T09:22:16;17.30;44.30
41644;DHT22;44236;48.098;11.582;2023-01-29T09:24:42;17.30;44.10
41644;DHT22;44236;48.098;11.582;2023-01-29T09:27:07;17.30;44.10
41644;DHT22;44236;48.098;11.582;2023-01-29T09:29:34;17.30;43.90
41644;DHT22;44236;48.098;11.582;2023-01-29T09:31:59;17.40;43.60
41644;DHT22;44236;48.098;11.582;2023-01-29T09:34:25;17.40;43.60
41644;DHT22;44236;48.098;11.582;2023-01-29T09:36:51;17.40;43.50
41644;DHT22;44236;48.098;11.582;2023-01-29T09:39:17;17.40;43.70
41644;DHT22;44236;48.098;11.582;2023-01-29T09:47:11;17.50;44.10
41644;DHT22;44236;48.098;11.582;2023-01-29T09:49:41;17.50;43.70
41644;DHT22;44236;48.098;11.582;2023-01-29T09:52:19;17.50;43.80
41644;DHT22;44236;48.098;11.582;2023-01-29T09:57:55;17.50;43.40
41644;DHT22;44236;48.098;11.582;2023-01-29T10:00:39;17.60;44.00
41644;DHT22;44236;48.098;11.582;2023-01-29T10:05:49;17.50;43.30
41644;DHT22;44236;48.098;11.582;2023-01-29T10:16:20;17.70;43.40
41644;DHT22;44236;48.098;11.582;2023-01-29T10:26:51;17.70;43.50
41644;DHT22;44236;48.098;11.582;2023-01-29T10:29:18;17.70;43.50
41644;DHT22;44236;48.098;11.582;2023-01-29T10:31:48;17.70;43.50
41644;DHT22;44236;48.098;11.582;2023-01-29T10:36:49;17.70;43.30
41644;DHT22;44236;48.098;11.582;2023-01-29T10:39:19;17.70;43.50
41644;DHT22;44236;48.098;11.582;2023-01-29T10:42:03;17.70;43.40
41644;DHT22;44236;48.098;11.582;2023-01-29T10:44:58;17.70;43.40
41644;DHT22;44236;48.098;11.582;2023-01-29T10:53:00;17.70;43.20
41644;DHT22;44236;48.098;11.582;2023-01-29T11:00:57;17.70;43.20
41644;DHT22;44236;48.098;11.582;2023-01-29T11:03:24;17.70;43.50
41644;DHT22;44236;48.098;11.582;2023-01-29T11:06:16;17.70;43.20
41644;DHT22;44236;48.098;11.582;2023-01-29T11:09:02;17.70;43.30
41644;DHT22;44236;48.098;11.582;2023-01-29T11:11:38;17.70;43.30
41644;DHT22;44236;48.098;11.582;2023-01-29T11:14:10;17.80;43.30
41644;DHT22;44236;48.098;11.582;2023-01-29T11:16:42;17.80;43.40
41644;DHT22;44236;48.098;11.582;2023-01-29T11:19:08;17.70;43.00
41644;DHT22;44236;48.098;11.582;2023-01-29T11:21:50;17.80;43.30
41644;DHT22;44236;48.098;11.582;2023-01-29T11:24:16;17.70;43.00
41644;DHT22;44236;48.098;11.582;2023-01-29T11:26:45;17.70;43.20
41644;DHT22;44236;48.098;11.582;2023-01-29T11:29:43;17.70;43.70
41644;DHT22;44236;48.098;11.582;2023-01-29T11:32:13;17.70;43.20
41644;DHT22;44236;48.098;11.582;2023-01-29T11:35:03;17.70;43.20
41644;DHT22;44236;48.098;11.582;2023-01-29T11:37:37;17.70;43.10
41644;DHT22;44236;48.098;11.582;2023-01-29T11:42:52;17.70;43.00
41644;DHT22;44236;48.098;11.582;2023-01-29T11:45:28;17.70;43.10
41644;DHT22;44236;48.098;11.582;2023-01-29T11:47:57;17.70;43.00
41644;DHT22;44236;48.098;11.582;2023-01-29T11:50:29;17.70;43.00
41644;DHT22;44236;48.098;11.582;2023-01-29T11:52:57;17.70;43.00
41644;DHT22;44236;48.098;11.582;2023-01-29T11:55:25;17.70;43.00
41644;DHT22;44236;48.098;11.582;2023-01-29T12:00:28;17.70;43.00
41644;DHT22;44236;48.098;11.582;2023-01-29T12:05:25;17.70;42.90
41644;DHT22;44236;48.098;11.582;2023-01-29T12:07:54;17.80;42.90
41644;DHT22;44236;48.098;11.582;2023-01-29T12:10:50;17.70;43.30
41644;DHT22;44236;48.098;11.582;2023-01-29T12:13:25;17.80;42.90
41644;DHT22;44236;48.098;11.582;2023-01-29T12:16:10;17.80;42.80
41644;DHT22;44236;48.098;11.582;2023-01-29T12:18:43;17.80;42.90
41644;DHT22;44236;48.098;11.582;2023-01-29T12:21:12;17.70;42.70
41644;DHT22;44236;48.098;11.582;2023-01-29T12:23:56;17.80;42.90
41644;DHT22;44236;48.098;11.582;2023-01-29T12:26:52;17.80;42.80
41644;DHT22;44236;48.098;11.582;2023-01-29T12:29:24;17.80;42.80
41644;DHT22;44236;48.098;11.582;2023-01-29T12:32:19;17.80;42.80
41644;DHT22;44236;48.098;11.582;2023-01-29T12:35:11;17.80;42.70
41644;DHT22;44236;48.098;11.582;2023-01-29T12:37:54;17.70;43.20
41644;DHT22;44236;48.098;11.582;2023-01-29T12:40:25;17.80;41.40
41644;DHT22;44236;48.098;11.582;2023-01-29T12:42:55;17.80;43.20
41644;DHT22;44236;48.098;11.582;2023-01-29T12:45:24;17.80;42.70
41644;DHT22;44236;48.098;11.582;2023-01-29T12:47:54;17.90;43.30
41644;DHT22;44236;48.098;11.582;2023-01-29T12:50:32;17.90;43.80
41644;DHT22;44236;48.098;11.582;2023-01-29T12:55:39;18.00;43.60
41644;DHT22;44236;48.098;11.582;2023-01-29T13:00:42;18.00;44.10
41644;DHT22;44236;48.098;11.582;2023-01-29T13:03:13;18.00;43.90
41644;DHT22;44236;48.098;11.582;2023-01-29T13:05:47;18.00;43.50
41644;DHT22;44236;48.098;11.582;2023-01-29T13:08:44;18.10;44.00
41644;DHT22;44236;48.098;11.582;2023-01-29T13:14:22;18.00;44.40
41644;DHT22;44236;48.098;11.582;2023-01-29T13:17:01;18.00;44.60
41644;DHT22;44236;48.098;11.582;2023-01-29T13:19:35;18.10;45.10
41644;DHT22;44236;48.098;11.582;2023-01-29T13:22:05;18.10;45.60
41644;DHT22;44236;48.098;11.582;2023-01-29T13:24:38;18.20;45.30
41644;DHT22;44236;48.098;11.582;2023-01-29T13:27:05;18.20;45.20
41644;DHT22;44236;48.098;11.582;2023-01-29T13:29:34;18.20;45.30
41644;DHT22;44236;48.098;11.582;2023-01-29T13:32:02;18.20;45.20
41644;DHT22;44236;48.098;11.582;2023-01-29T13:34:34;18.20;45.30
41644;DHT22;44236;48.098;11.582;2023-01-29T13:37:01;18.20;45.30
41644;DHT22;44236;48.098;11.582;2023-01-29T13:39:33;18.20;45.40
41644;DHT22;44236;48.098;11.582;2023-01-29T13:42:14;18.20;45.30
41644;DHT22;44236;48.098;11.582;2023-01-29T13:44:40;18.20;45.30
41644;DHT22;44236;48.098;11.582;2023-01-29T13:47:21;18.20;45.50
41644;DHT22;44236;48.098;11.582;2023-01-29T13:55:38;18.20;45.40
41644;DHT22;44236;48.098;11.582;2023-01-29T13:58:05;18.20;45.30
41644;DHT22;44236;48.098;11.582;2023-01-29T14:07:54;18.30;45.70
41644;DHT22;44236;48.098;11.582;2023-01-29T14:10:22;18.30;45.80
41644;DHT22;44236;48.098;11.582;2023-01-29T14:15:44;18.30;40.60
41644;DHT22;44236;48.098;11.582;2023-01-29T14:23:42;16.80;38.70
41644;DHT22;44236;48.098;11.582;2023-01-29T14:29:06;17.40;41.60
41644;DHT22;44236;48.098;11.582;2023-01-29T14:31:57;17.50;41.90
41644;DHT22;44236;48.098;11.582;2023-01-29T14:34:27;17.60;42.00
41644;DHT22;44236;48.098;11.582;2023-01-29T14:37:01;17.70;42.20
41644;DHT22;44236;48.098;11.582;2023-01-29T14:39:36;17.70;42.20
41644;DHT22;44236;48.098;11.582;2023-01-29T14:52:50;18.00;42.50
41644;DHT22;44236;48.098;11.582;2023-01-29T14:55:52;18.10;42.60
41644;DHT22;44236;48.098;11.582;2023-01-29T14:58:27;18.10;42.60
41644;DHT22;44236;48.098;11.582;2023-01-29T15:00:57;18.20;42.40
41644;DHT22;44236;48.098;11.582;2023-01-29T15:03:47;18.30;42.50
41644;DHT22;44236;48.098;11.582;2023-01-29T15:07:00;18.30;42.70
41644;DHT22;44236;48.098;11.582;2023-01-29T15:09:36;18.40;42.60
41644;DHT22;44236;48.098;11.582;2023-01-29T15:12:45;18.40;42.50
41644;DHT22;44236;48.098;11.582;2023-01-29T15:20:33;18.60;42.50
41644;DHT22;44236;48.098;11.582;2023-01-29T15:23:00;18.60;42.20
41644;DHT22;44236;48.098;11.582;2023-01-29T15:25:34;18.70;42.40
41644;DHT22;44236;48.098;11.582;2023-01-29T15:28:02;18.80;42.50
41644;DHT22;44236;48.098;11.582;2023-01-29T15:30:33;18.70;42.50
41644;DHT22;44236;48.098;11.582;2023-01-29T15:33:00;18.70;42.50
41644;DHT22;44236;48.098;11.582;2023-01-29T15:35:34;18.80;42.40
41644;DHT22;44236;48.098;11.582;2023-01-29T15:38:01;18.80;42.20
41644;DHT22;44236;48.098;11.582;2023-01-29T15:40:27;18.80;42.00
41644;DHT22;44236;48.098;11.582;2023-01-29T15:42:56;18.90;42.10
41644;DHT22;44236;48.098;11.582;2023-01-29T15:45:30;18.90;42.20
41644;DHT22;44236;48.098;11.582;2023-01-29T15:48:04;18.90;42.00
41644;DHT22;44236;48.098;11.582;2023-01-29T15:50:34;18.90;42.40
41644;DHT22;44236;48.098;11.582;2023-01-29T15:53:04;19.00;41.90
41644;DHT22;44236;48.098;11.582;2023-01-29T15:55:31;19.00;41.80
41644;DHT22;44236;48.098;11.582;2023-01-29T15:57:58;19.00;41.70
41644;DHT22;44236;48.098;11.582;2023-01-29T16:00:26;19.00;41.50
41644;DHT22;44236;48.098;11.582;2023-01-29T16:02:55;19.10;41.90
41644;DHT22;44236;48.098;11.582;2023-01-29T16:05:26;19.10;41.30
41644;DHT22;44236;48.098;11.582;2023-01-29T16:07:53;19.20;41.80
41644;DHT22;44236;48.098;11.582;2023-01-29T16:10:27;19.30;41.20
41644;DHT22;44236;48.098;11.582;2023-01-29T16:12:54;19.30;41.80
41644;DHT22;44236;48.098;11.582;2023-01-29T16:15:35;19.30;41.10
41644;DHT22;44236;48.098;11.582;2023-01-29T16:18:19;19.30;41.00
41644;DHT22;44236;48.098;11.582;2023-01-29T16:20:50;19.20;41.40
41644;DHT22;44236;48.098;11.582;2023-01-29T16:23:25;19.30;41.70
41644;DHT22;44236;48.098;11.582;2023-01-29T16:25:54;19.30;41.00
41644;DHT22;44236;48.098;11.582;2023-01-29T16:28:21;19.40;41.30
41644;DHT22;44236;48.098;11.582;2023-01-29T16:30:54;19.30;40.80
41644;DHT22;44236;48.098;11.582;2023-01-29T16:33:21;19.30;40.90
41644;DHT22;44236;48.098;11.582;2023-01-29T16:35:51;19.30;41.00
41644;DHT22;44236;48.098;11.582;2023-01-29T16:38:30;19.30;41.10
41644;DHT22;44236;48.098;11.582;2023-01-29T16:48:40;19.40;40.80
41644;DHT22;44236;48.098;11.582;2023-01-29T16:51:25;19.40;40.80
41644;DHT22;44236;48.098;11.582;2023-01-29T16:56:32;19.40;40.80
41644;DHT22;44236;48.098;11.582;2023-01-29T16:58:59;19.40;41.00
41644;DHT22;44236;48.098;11.582;2023-01-29T17:01:27;19.40;40.70
41644;DHT22;44236;48.098;11.582;2023-01-29T17:04:05;19.50;40.70
41644;DHT22;44236;48.098;11.582;2023-01-29T17:06:32;19.50;40.90
41644;DHT22;44236;48.098;11.582;2023-01-29T17:08:58;19.50;41.20
41644;DHT22;44236;48.098;11.582;2023-01-29T17:11:39;19.50;40.80
41644;DHT22;44236;48.098;11.582;2023-01-29T17:14:07;19.50;40.80
41644;DHT22;44236;48.098;11.582;2023-01-29T17:16:36;19.50;42.10
41644;DHT22;44236;48.098;11.582;2023-01-29T17:19:16;19.60;41.70
41644;DHT22;44236;48.098;11.582;2023-01-29T17:21:44;19.70;41.60
41644;DHT22;44236;48.098;11.582;2023-01-29T17:24:10;19.70;41.60
41644;DHT22;44236;48.098;11.582;2023-01-29T17:26:36;19.70;41.70
41644;DHT22;44236;48.098;11.582;2023-01-29T17:29:07;19.70;42.00
41644;DHT22;44236;48.098;11.582;2023-01-29T17:31:35;19.70;42.00
41644;DHT22;44236;48.098;11.582;2023-01-29T17:34:00;19.70;42.10
41644;DHT22;44236;48.098;11.582;2023-01-29T17:36:26;19.70;42.40
41644;DHT22;44236;48.098;11.582;2023-01-29T17:38:52;19.70;42.00
41644;DHT22;44236;48.098;11.582;2023-01-29T17:41:26;19.80;41.90
41644;DHT22;44236;48.098;11.582;2023-01-29T17:43:52;19.80;41.70
41644;DHT22;44236;48.098;11.582;2023-01-29T17:46:17;19.80;41.00
41644;DHT22;44236;48.098;11.582;2023-01-29T17:48:44;19.70;41.00
41644;DHT22;44236;48.098;11.582;2023-01-29T17:51:12;19.70;41.30
41644;DHT22;44236;48.098;11.582;2023-01-29T17:53:39;19.70;41.00
41644;DHT22;44236;48.098;11.582;2023-01-29T17:56:05;19.70;41.30
41644;DHT22;44236;48.098;11.582;2023-01-29T17:58:31;19.70;41.20
41644;DHT22;44236;48.098;11.582;2023-01-29T18:00:57;19.70;40.90
41644;DHT22;44236;48.098;11.582;2023-01-29T18:03:22;19.80;41.10
41644;DHT22;44236;48.098;11.582;2023-01-29T18:05:49;19.80;40.80
41644;DHT22;44236;48.098;11.582;2023-01-29T18:08:18;19.80;40.70
41644;DHT22;44236;48.098;11.582;2023-01-29T18:10:45;19.80;41.20
41644;DHT22;44236;48.098;11.582;2023-01-29T18:13:11;19.80;40.60
41644;DHT22;44236;48.098;11.582;2023-01-29T18:15:38;19.90;40.80
41644;DHT22;44236;48.098;11.582;2023-01-29T18:18:04;19.80;40.10